Terminal Aerodrome Forecast
Issued by NWS

Home | Current Version | Previous Version | Text Only | Print | Product List | Glossary On
Versions: 1 2 3 4 5 6 7 8 9 10 11 12
000
FTAK31 PAJN 260500
TAFAGY
TAF
PAGY 260538Z 2606/2706 VRB05KT P6SM BKN120
     FM260900 VRB06KT P6SM BKN100
     FM261700 22008KT P6SM VCSH BKN050 OVC100
     FM270200 22010KT P6SM -SHRA BKN040 OVC060
      AMD LTD TO CLD VIS AND WIND=

USA.gov is the U.S. government's official web portal to all federal, state and local government web resources and services.